createdAt,value
2022-12-03T00:00:38.175Z,41.2
2022-12-03T00:01:45.483Z,42.8
2022-12-03T00:02:52.772Z,41.5
2022-12-03T00:04:00.143Z,45.6
2022-12-03T00:05:07.412Z,49.6
2022-12-03T00:06:14.485Z,49
2022-12-03T00:07:21.712Z,48.5
2022-12-03T00:08:28.887Z,51.1
2022-12-03T00:09:36.217Z,49.3
2022-12-03T00:10:43.080Z,48.7
2022-12-03T00:11:50.376Z,47.7
2022-12-03T00:12:57.590Z,51.8
2022-12-03T00:14:04.509Z,48.6
2022-12-03T00:15:11.699Z,48.5
2022-12-03T00:16:18.979Z,49.1
2022-12-03T00:17:26.040Z,45.1
2022-12-03T00:18:34.160Z,46.9
2022-12-03T00:19:41.507Z,44.4
2022-12-03T00:20:49.845Z,47.1
2022-12-03T00:21:56.687Z,41.8
2022-12-03T00:23:03.769Z,41.9
2022-12-03T00:24:10.919Z,41.6
2022-12-03T00:25:18.071Z,41.1
2022-12-03T00:26:25.352Z,39.8
2022-12-03T00:27:33.447Z,39.5
2022-12-03T00:28:40.583Z,41.7
2022-12-03T00:29:48.074Z,40
2022-12-03T00:30:55.490Z,43.1
2022-12-03T00:32:02.423Z,41
2022-12-03T00:33:09.647Z,42
2022-12-03T00:34:16.828Z,44.3
2022-12-03T00:35:23.940Z,45.6
2022-12-03T00:36:31.054Z,42.4
2022-12-03T00:37:38.277Z,44.1
2022-12-03T00:38:45.338Z,45.6
2022-12-03T00:39:52.601Z,44.3
2022-12-03T00:40:59.579Z,44.1
2022-12-03T00:42:06.759Z,42.5
2022-12-03T00:43:13.899Z,42.4
2022-12-03T00:44:21.424Z,42.9
2022-12-03T00:45:28.761Z,43.6
2022-12-03T00:46:35.958Z,44.4
2022-12-03T00:47:43.079Z,43.3
2022-12-03T00:48:50.307Z,42.5
2022-12-03T00:49:57.315Z,42.8
2022-12-03T00:51:05.180Z,43.6
2022-12-03T00:52:12.435Z,43.5
2022-12-03T00:53:19.811Z,44.2
2022-12-03T00:54:31.502Z,46.4
2022-12-03T00:55:34.051Z,46.1
2022-12-03T00:56:41.207Z,44.5
2022-12-03T00:57:48.033Z,46.1
2022-12-03T00:58:55.631Z,46.6
2022-12-03T01:00:02.991Z,45.1
2022-12-03T01:01:10.703Z,47.7
2022-12-03T01:02:17.873Z,46.5
2022-12-03T01:03:25.115Z,46
2022-12-03T01:04:31.992Z,48.6
2022-12-03T01:05:39.147Z,48.6
2022-12-03T01:06:46.298Z,49.9
2022-12-03T01:07:54.401Z,45.6
2022-12-03T01:09:01.579Z,47.9
2022-12-03T01:10:08.723Z,47.8
2022-12-03T01:11:15.915Z,46.7
2022-12-03T01:12:28.355Z,48.5
2022-12-03T01:13:35.732Z,50.3
2022-12-03T01:14:44.286Z,55.2
2022-12-03T01:15:51.396Z,47.2
2022-12-03T01:16:59.723Z,50.7
2022-12-03T01:18:06.672Z,55.2
2022-12-03T01:19:13.706Z,49.2
2022-12-03T01:20:20.886Z,51.2
2022-12-03T01:21:28.285Z,48.8
2022-12-03T01:22:35.195Z,48.9
2022-12-03T01:23:42.567Z,51.1
2022-12-03T01:24:49.556Z,49.6
2022-12-03T01:25:56.584Z,47.7
2022-12-03T01:27:03.652Z,45.2
2022-12-03T01:28:10.804Z,46.3
2022-12-03T01:29:17.959Z,46.8
2022-12-03T01:30:25.287Z,44.4
2022-12-03T01:31:32.421Z,43.9
2022-12-03T01:32:44.527Z,44.4
2022-12-03T01:33:51.614Z,45.1
2022-12-03T01:34:58.702Z,44.8
2022-12-03T01:36:05.831Z,46.4
2022-12-03T01:37:12.939Z,48.7
2022-12-03T01:38:20.175Z,45.2
2022-12-03T01:39:27.359Z,46.5
2022-12-03T01:40:35.344Z,44.4
2022-12-03T01:41:42.518Z,45.5
2022-12-03T01:42:49.797Z,47.5
2022-12-03T01:43:56.810Z,44.6
2022-12-03T01:45:04.083Z,45.9
2022-12-03T01:46:12.511Z,47.2
2022-12-03T01:47:19.440Z,46.3
2022-12-03T01:48:31.835Z,46.5
2022-12-03T01:49:38.954Z,46.1
2022-12-03T01:50:49.104Z,45.8
2022-12-03T01:51:56.078Z,43.5
2022-12-03T01:53:03.195Z,46.7
2022-12-03T01:54:10.327Z,44.2
2022-12-03T01:55:17.525Z,45.9
2022-12-03T01:56:24.723Z,46
2022-12-03T01:57:31.815Z,44.4
2022-12-03T01:58:45.137Z,43.9
2022-12-03T01:59:52.384Z,43
2022-12-03T02:00:59.335Z,43.8
2022-12-03T02:02:06.521Z,45.9
2022-12-03T02:03:16.179Z,45.6
2022-12-03T02:04:26.691Z,46
2022-12-03T02:05:33.605Z,45.2
2022-12-03T02:06:40.727Z,44.2
2022-12-03T02:07:48.035Z,43
2022-12-03T02:08:55.256Z,48.1
2022-12-03T02:10:02.471Z,45.7
2022-12-03T02:11:10.488Z,46.3
2022-12-03T02:12:22.959Z,47
2022-12-03T02:13:38.535Z,47.6
2022-12-03T02:14:45.556Z,46
2022-12-03T02:15:53.104Z,48.6
2022-12-03T02:17:00.368Z,45.9
2022-12-03T02:18:07.263Z,45.5
2022-12-03T02:19:14.687Z,45.9
2022-12-03T02:20:24.665Z,44.6
2022-12-03T02:21:31.812Z,46.1
2022-12-03T02:22:50.100Z,47.1
2022-12-03T02:24:07.398Z,46.5
2022-12-03T02:25:20.528Z,48.8
2022-12-03T02:26:27.832Z,48.4
2022-12-03T02:27:35.836Z,44.8
2022-12-03T02:28:43.163Z,47.4
2022-12-03T02:29:50.547Z,48.1
2022-12-03T02:30:57.609Z,47.6
2022-12-03T02:32:05.639Z,48.9
2022-12-03T02:33:12.720Z,48.3
2022-12-03T02:34:19.795Z,49.3
2022-12-03T02:35:37.320Z,48.2
2022-12-03T02:36:44.396Z,48.5
2022-12-03T02:37:51.499Z,45.8
2022-12-03T02:39:01.630Z,46.8
2022-12-03T02:40:08.806Z,48.5
2022-12-03T02:41:16.267Z,48
2022-12-03T02:42:28.719Z,47.7
2022-12-03T02:43:38.934Z,47.1
2022-12-03T02:44:46.095Z,48.9
2022-12-03T02:45:53.319Z,48.6
2022-12-03T02:47:00.367Z,46.1
2022-12-03T02:48:07.491Z,46.9
2022-12-03T02:49:14.569Z,48
2022-12-03T02:50:21.804Z,48.9
2022-12-03T02:51:29.824Z,47.5
2022-12-03T02:52:37.170Z,47.2
2022-12-03T02:53:44.503Z,48.8
2022-12-03T02:54:51.855Z,49
2022-12-03T02:55:58.685Z,49.8
2022-12-03T02:57:06.460Z,47.5
2022-12-03T02:58:14.221Z,49.6
2022-12-03T02:59:22.425Z,49.2
2022-12-03T03:00:30.158Z,49.5
2022-12-03T03:01:37.567Z,46.4
2022-12-03T03:02:44.488Z,47.9
2022-12-03T03:03:51.706Z,48.8
2022-12-03T03:04:58.812Z,50.7
2022-12-03T03:06:05.854Z,47.3
2022-12-03T03:07:12.996Z,49.2
2022-12-03T03:08:20.470Z,50.1
2022-12-03T03:09:27.684Z,49.2
2022-12-03T03:10:34.505Z,49.1
2022-12-03T03:11:42.184Z,49.2
2022-12-03T03:12:49.571Z,49
2022-12-03T03:13:56.488Z,52.4
2022-12-03T03:15:04.024Z,50.2
2022-12-03T03:16:11.961Z,50.5
2022-12-03T03:17:18.862Z,51
2022-12-03T03:18:26.019Z,48
2022-12-03T03:19:33.408Z,49.5
2022-12-03T03:20:40.354Z,53.1
2022-12-03T03:21:47.520Z,50.5
2022-12-03T03:22:54.744Z,49.7
2022-12-03T03:24:11.924Z,50.1
2022-12-03T03:25:19.152Z,49
2022-12-03T03:26:26.366Z,48.5
2022-12-03T03:27:33.385Z,47.5
2022-12-03T03:28:40.616Z,50.6
2022-12-03T03:29:50.309Z,50.8
2022-12-03T03:30:57.520Z,49.8
2022-12-03T03:32:04.593Z,50.2
2022-12-03T03:33:11.705Z,52.3
2022-12-03T03:34:19.065Z,52.4
2022-12-03T03:35:26.165Z,51.5
2022-12-03T03:36:33.114Z,51.9
2022-12-03T03:37:40.345Z,49.3
2022-12-03T03:38:47.460Z,49.4
2022-12-03T03:39:54.687Z,49.9
2022-12-03T03:41:01.920Z,48.7
2022-12-03T03:42:09.329Z,53
2022-12-03T03:43:16.465Z,50.3
2022-12-03T03:44:23.620Z,49.9
2022-12-03T03:45:30.830Z,50.9
2022-12-03T03:46:38.153Z,51.8
2022-12-03T03:47:45.116Z,48.8
2022-12-03T03:48:52.301Z,50.2
2022-12-03T03:50:00.360Z,51.4
2022-12-03T03:51:07.461Z,50.6
2022-12-03T03:52:14.621Z,49.3
2022-12-03T03:53:21.848Z,54.9
2022-12-03T03:54:29.080Z,50.2
2022-12-03T03:55:36.190Z,47.9
2022-12-03T03:56:43.361Z,51.7
2022-12-03T03:57:50.968Z,52.1
2022-12-03T03:58:58.204Z,50.5
2022-12-03T04:00:05.195Z,49.5
2022-12-03T04:01:12.491Z,53.4
2022-12-03T04:02:19.472Z,51.5
2022-12-03T04:03:26.651Z,50.3
2022-12-03T04:04:33.808Z,52.2
2022-12-03T04:05:40.948Z,53.9
2022-12-03T04:06:48.366Z,51.9
2022-12-03T04:07:55.244Z,51.9
2022-12-03T04:09:02.261Z,50.3
2022-12-03T04:10:09.393Z,52.3
2022-12-03T04:11:21.694Z,48.8
2022-12-03T04:12:33.968Z,52.4
2022-12-03T04:13:46.376Z,52.3
2022-12-03T04:14:53.883Z,51.7
2022-12-03T04:16:00.609Z,50.6
2022-12-03T04:17:07.565Z,53.1
2022-12-03T04:18:14.755Z,48.4
2022-12-03T04:19:26.977Z,55
2022-12-03T04:20:34.105Z,51.6
2022-12-03T04:21:41.380Z,52.2
2022-12-03T04:22:53.612Z,52.9
2022-12-03T04:24:00.765Z,51.7
2022-12-03T04:25:08.340Z,51
2022-12-03T04:26:21.341Z,51.6
2022-12-03T04:27:33.312Z,53.6
2022-12-03T04:28:43.649Z,53.9
2022-12-03T04:29:53.160Z,50.1
2022-12-03T04:31:00.333Z,54.3
2022-12-03T04:32:07.392Z,50.5
2022-12-03T04:33:19.579Z,49.7
2022-12-03T04:34:32.104Z,52.7
2022-12-03T04:35:44.208Z,46.9
2022-12-03T04:36:51.304Z,51
2022-12-03T04:37:58.519Z,50.2
2022-12-03T04:39:05.517Z,50
2022-12-03T04:40:12.772Z,51.3
2022-12-03T04:41:24.973Z,50
2022-12-03T04:42:32.270Z,52.5
2022-12-03T04:43:40.149Z,48.8
2022-12-03T04:44:52.685Z,51.8
2022-12-03T04:45:59.317Z,50.3
2022-12-03T04:47:06.168Z,52
2022-12-03T04:48:16.392Z,49.6
2022-12-03T04:49:23.568Z,51.6
2022-12-03T04:50:30.698Z,50.9
2022-12-03T04:51:37.849Z,49
2022-12-03T04:52:45.019Z,52.6
2022-12-03T04:53:52.200Z,48.9
2022-12-03T04:55:00.272Z,52.1
2022-12-03T04:56:08.267Z,49.9
2022-12-03T04:57:15.023Z,49.9
2022-12-03T04:58:22.220Z,51.6
2022-12-03T04:59:29.467Z,52.5
2022-12-03T05:00:36.637Z,49.7
2022-12-03T05:01:43.772Z,52.9
2022-12-03T05:02:50.963Z,49.4
2022-12-03T05:03:58.041Z,54.6
2022-12-03T05:05:05.096Z,52.2
2022-12-03T05:06:12.771Z,51.6
2022-12-03T05:07:20.268Z,49.7
2022-12-03T05:08:27.064Z,55.4
2022-12-03T05:09:34.227Z,53
2022-12-03T05:10:41.452Z,52.6
2022-12-03T05:11:48.596Z,49.8
2022-12-03T05:12:55.801Z,49
2022-12-03T05:14:03.040Z,52.2
2022-12-03T05:15:09.857Z,50.4
2022-12-03T05:16:17.116Z,54.4
2022-12-03T05:17:24.313Z,51.1
2022-12-03T05:18:31.410Z,49.1
2022-12-03T05:19:39.193Z,52
2022-12-03T05:20:53.389Z,50.5
2022-12-03T05:21:58.596Z,51.4
2022-12-03T05:23:05.753Z,48.9
2022-12-03T05:24:12.649Z,47.2
2022-12-03T05:25:19.844Z,51.6
2022-12-03T05:26:26.995Z,49
2022-12-03T05:27:34.168Z,48.7
2022-12-03T05:28:41.372Z,49.7
2022-12-03T05:29:48.672Z,51.6
2022-12-03T05:30:55.822Z,48.1
2022-12-03T05:32:02.925Z,51
2022-12-03T05:33:09.867Z,51.2
2022-12-03T05:34:17.066Z,49.1
2022-12-03T05:35:24.667Z,48.8
2022-12-03T05:36:31.887Z,49.8
2022-12-03T05:37:39.080Z,52.9
2022-12-03T05:38:46.492Z,49.7
2022-12-03T05:39:53.395Z,47.1
2022-12-03T05:41:00.623Z,52.1
2022-12-03T05:42:07.647Z,51.5
2022-12-03T05:43:19.843Z,51.6
2022-12-03T05:44:28.087Z,47.7
2022-12-03T05:45:35.087Z,51.7
2022-12-03T05:46:42.347Z,49.1
2022-12-03T05:47:49.485Z,50.9
2022-12-03T05:48:56.635Z,49.4
2022-12-03T05:50:04.081Z,53.4
2022-12-03T05:51:11.504Z,50.4
2022-12-03T05:52:18.447Z,48.8
2022-12-03T05:53:25.593Z,51.4
2022-12-03T05:54:32.788Z,48
2022-12-03T05:55:40.763Z,47.5
2022-12-03T05:56:47.807Z,52.4
2022-12-03T05:57:54.899Z,50.1
2022-12-03T05:59:01.895Z,51.3
2022-12-03T06:00:08.928Z,49
2022-12-03T06:01:16.125Z,54.2
2022-12-03T06:02:24.037Z,50
2022-12-03T06:03:31.188Z,51.8
2022-12-03T06:04:38.158Z,49.8
2022-12-03T06:05:45.276Z,49
2022-12-03T06:06:52.379Z,51.8
2022-12-03T06:07:59.774Z,51.8
2022-12-03T06:09:06.619Z,49.7
2022-12-03T06:10:13.779Z,52.9
2022-12-03T06:11:21.047Z,49.4
2022-12-03T06:12:28.086Z,51.4
2022-12-03T06:13:35.239Z,50.4
2022-12-03T06:14:42.435Z,49.1
2022-12-03T06:15:49.631Z,53.3
2022-12-03T06:16:56.907Z,49.4
2022-12-03T06:18:03.884Z,48.2
2022-12-03T06:19:10.864Z,48.6
2022-12-03T06:20:18.022Z,49.8
2022-12-03T06:21:25.223Z,52.3
2022-12-03T06:22:32.466Z,53.8
2022-12-03T06:23:40.376Z,50.2
2022-12-03T06:24:47.271Z,51.4
2022-12-03T06:25:54.352Z,50.2
2022-12-03T06:27:01.484Z,50.1
2022-12-03T06:28:08.533Z,49.6
2022-12-03T06:29:15.711Z,48
2022-12-03T06:30:22.835Z,52.9
2022-12-03T06:31:30.117Z,49.7
2022-12-03T06:32:37.173Z,51.2
2022-12-03T06:33:44.414Z,52.1
2022-12-03T06:34:52.179Z,49.3
2022-12-03T06:35:59.392Z,51.2
2022-12-03T06:37:07.315Z,52.4
2022-12-03T06:38:14.479Z,51.9
2022-12-03T06:39:21.835Z,50.2
2022-12-03T06:40:28.659Z,49.4
2022-12-03T06:41:35.875Z,49.7
2022-12-03T06:42:43.351Z,52.6
2022-12-03T06:43:50.163Z,52.7
2022-12-03T06:44:57.439Z,50.7
2022-12-03T06:46:05.467Z,52.2
2022-12-03T06:47:12.584Z,55.5
2022-12-03T06:48:20.563Z,52.8
2022-12-03T06:49:28.270Z,51.1
2022-12-03T06:50:35.079Z,51.2
2022-12-03T06:51:42.231Z,53.6
2022-12-03T06:52:49.347Z,52.1
2022-12-03T06:53:56.623Z,53.6
2022-12-03T06:55:03.996Z,53.6
2022-12-03T06:56:11.415Z,54.8
2022-12-03T06:57:18.411Z,57.2
2022-12-03T06:58:25.515Z,55.3
2022-12-03T06:59:32.715Z,54.6
2022-12-03T07:00:39.920Z,56.6
2022-12-03T07:01:47.158Z,55.8
2022-12-03T07:02:54.377Z,56.3
2022-12-03T07:04:01.595Z,54.9
2022-12-03T07:05:08.459Z,56
2022-12-03T07:06:15.613Z,56.5
2022-12-03T07:07:22.687Z,59.1
2022-12-03T07:08:29.950Z,57.4
2022-12-03T07:09:37.117Z,57.4
2022-12-03T07:10:44.215Z,57.5
2022-12-03T07:11:51.629Z,57.4
2022-12-03T07:12:58.531Z,61.4
2022-12-03T07:14:05.953Z,61.2
2022-12-03T07:15:12.939Z,58.1
2022-12-03T07:16:19.871Z,62.2
2022-12-03T07:17:27.032Z,63.4
2022-12-03T07:18:34.207Z,59.9
2022-12-03T07:19:41.360Z,62.7
2022-12-03T07:20:50.393Z,60.3
2022-12-03T07:21:57.325Z,62.6
2022-12-03T07:23:05.247Z,58.4
2022-12-03T07:24:12.364Z,63.4
2022-12-03T07:25:23.031Z,62.4
2022-12-03T07:26:26.744Z,62.2
2022-12-03T07:27:33.855Z,62.1
2022-12-03T07:28:41.161Z,64.9
2022-12-03T07:29:48.192Z,69.7
2022-12-03T07:30:55.368Z,65.2
2022-12-03T07:32:02.568Z,62.8
2022-12-03T07:33:09.807Z,64.3
2022-12-03T07:34:16.789Z,65.2
2022-12-03T07:35:23.836Z,64.3
2022-12-03T07:36:31.022Z,63.5
2022-12-03T07:37:38.135Z,66.4
2022-12-03T07:38:45.239Z,67.2
2022-12-03T07:39:52.450Z,64.3
2022-12-03T07:40:59.623Z,67
2022-12-03T07:42:06.691Z,67.3
2022-12-03T07:43:13.763Z,65
2022-12-03T07:44:21.787Z,71.6
2022-12-03T07:45:29.116Z,69.3
2022-12-03T07:46:37.173Z,73.6
2022-12-03T07:47:44.536Z,74.3
2022-12-03T07:48:51.691Z,72.7
2022-12-03T07:49:58.784Z,70.1
2022-12-03T07:51:06.041Z,71.8
2022-12-03T07:52:13.380Z,66.8
2022-12-03T07:53:20.545Z,69.9
2022-12-03T07:54:28.003Z,71.3
2022-12-03T07:55:35.315Z,67.3
2022-12-03T07:56:42.571Z,69.7
2022-12-03T07:57:49.679Z,67.7
2022-12-03T07:58:56.755Z,69.5
2022-12-03T08:00:03.991Z,67.4
2022-12-03T08:01:11.636Z,66.2
2022-12-03T08:02:21.494Z,70.2
2022-12-03T08:03:26.936Z,71.8
2022-12-03T08:04:33.927Z,71.9
2022-12-03T08:05:41.101Z,70.6
2022-12-03T08:06:48.609Z,65.9
2022-12-03T08:07:55.623Z,68.8
2022-12-03T08:09:02.655Z,71.3
2022-12-03T08:10:09.652Z,69.1
2022-12-03T08:11:16.816Z,69.1
2022-12-03T08:12:23.956Z,73.4
2022-12-03T08:13:36.236Z,73
2022-12-03T08:14:43.864Z,67.1
2022-12-03T08:15:51.137Z,71.5
2022-12-03T08:17:01.314Z,76
2022-12-03T08:18:09.504Z,70.3
2022-12-03T08:19:16.396Z,71.7
2022-12-03T08:20:23.518Z,70.9
2022-12-03T08:21:30.700Z,70.2
2022-12-03T08:22:37.824Z,77
2022-12-03T08:23:45.373Z,70.9
2022-12-03T08:24:52.875Z,72.7
2022-12-03T08:25:59.768Z,78.5
2022-12-03T08:27:06.967Z,78.1
2022-12-03T08:28:20.119Z,71.5
2022-12-03T08:29:27.308Z,74.8
2022-12-03T08:30:34.375Z,72.3
2022-12-03T08:31:42.407Z,70.3
2022-12-03T08:32:52.167Z,67.2
2022-12-03T08:33:59.406Z,67.9
2022-12-03T08:35:16.680Z,62.1
2022-12-03T08:36:23.783Z,65.4
2022-12-03T08:37:33.455Z,67
2022-12-03T08:38:40.760Z,61
2022-12-03T08:39:47.815Z,61.5
2022-12-03T08:40:55.250Z,59.6
2022-12-03T08:42:02.755Z,61.1
2022-12-03T08:43:20.339Z,58.8
2022-12-03T08:44:30.665Z,58
2022-12-03T08:45:37.985Z,57.5
2022-12-03T08:46:44.963Z,61.2
2022-12-03T08:48:02.283Z,61
2022-12-03T08:49:15.474Z,56.4
2022-12-03T08:50:22.931Z,61.5
2022-12-03T08:51:33.013Z,62.8
2022-12-03T08:52:39.805Z,61
2022-12-03T08:53:47.027Z,65
2022-12-03T08:54:54.518Z,60
2022-12-03T08:56:01.562Z,62.3
2022-12-03T08:57:19.083Z,60.8
2022-12-03T08:58:33.857Z,61.7
2022-12-03T08:59:45.565Z,65
2022-12-03T09:00:50.943Z,62.3
2022-12-03T09:02:01.009Z,61
2022-12-03T09:03:08.239Z,60.6
2022-12-03T09:04:21.389Z,62.5
2022-12-03T09:05:34.427Z,63.8
2022-12-03T09:06:41.699Z,65.3
2022-12-03T09:07:49.876Z,63.7
2022-12-03T09:08:58.124Z,64.3
2022-12-03T09:10:04.192Z,67.9
2022-12-03T09:11:11.239Z,68.8
2022-12-03T09:12:18.407Z,67.4
2022-12-03T09:13:25.651Z,69.8
2022-12-03T09:14:32.652Z,67.8
2022-12-03T09:15:39.848Z,68.8
2022-12-03T09:16:46.994Z,69.2
2022-12-03T09:17:56.940Z,60.4
2022-12-03T09:19:04.235Z,61
2022-12-03T09:20:11.312Z,60.1
2022-12-03T09:21:18.537Z,65
2022-12-03T09:22:25.623Z,64.5
2022-12-03T09:23:32.832Z,62
2022-12-03T09:24:39.911Z,64.1
2022-12-03T09:25:47.058Z,62.6
2022-12-03T09:26:55.283Z,65.4
2022-12-03T09:28:03.267Z,65.1
2022-12-03T09:29:12.521Z,64.1
2022-12-03T09:30:18.160Z,65.5
2022-12-03T09:31:25.504Z,64.4
2022-12-03T09:32:32.501Z,67
2022-12-03T09:33:39.591Z,66.4
2022-12-03T09:34:47.543Z,67.7
2022-12-03T09:35:54.360Z,67.9
2022-12-03T09:37:02.812Z,65.6
2022-12-03T09:38:10.172Z,68.8
2022-12-03T09:39:17.319Z,69.3
2022-12-03T09:40:24.415Z,65.3
2022-12-03T09:41:31.592Z,68
2022-12-03T09:42:38.727Z,64.7
2022-12-03T09:44:53.399Z,66.2
2022-12-03T09:46:00.282Z,66.9
2022-12-03T09:47:07.303Z,66.7
2022-12-03T09:48:14.431Z,67.1
2022-12-03T09:49:21.666Z,66.8
2022-12-03T09:50:28.848Z,72.7
2022-12-03T09:51:36.026Z,71.7
2022-12-03T09:52:43.044Z,67.7
2022-12-03T09:53:50.321Z,73.2
2022-12-03T09:54:58.465Z,70.4
2022-12-03T09:56:05.423Z,68.3
2022-12-03T09:57:22.725Z,71
2022-12-03T09:58:34.445Z,71.8
2022-12-03T09:59:37.102Z,71.5
2022-12-03T10:00:46.020Z,70.9
2022-12-03T10:01:52.873Z,68.8
2022-12-03T10:02:59.959Z,66.1
2022-12-03T10:04:07.183Z,71.2
2022-12-03T10:05:14.335Z,69.3
2022-12-03T10:06:24.294Z,73.9
2022-12-03T10:07:31.584Z,71.9
2022-12-03T10:08:38.895Z,70.6
2022-12-03T10:09:45.844Z,69.4
2022-12-03T10:10:52.941Z,69.7
2022-12-03T10:12:00.440Z,73.5
2022-12-03T10:13:08.219Z,69
2022-12-03T10:14:16.103Z,74
2022-12-03T10:15:23.812Z,71
2022-12-03T10:16:31.101Z,69.1
2022-12-03T10:17:38.230Z,69.5
2022-12-03T10:18:45.405Z,68.2
2022-12-03T10:19:55.320Z,67.4
2022-12-03T10:21:02.245Z,69.1
2022-12-03T10:22:09.366Z,69.4
2022-12-03T10:23:16.402Z,65.7
2022-12-03T10:24:26.563Z,64.3
2022-12-03T10:25:33.851Z,68.2
2022-12-03T10:26:42.504Z,63.6
2022-12-03T10:27:49.595Z,65.6
2022-12-03T10:29:01.940Z,68.4
2022-12-03T10:30:09.151Z,69.6
2022-12-03T10:31:22.726Z,73.1
2022-12-03T10:32:29.854Z,66.2
2022-12-03T10:33:45.901Z,59.6
2022-12-03T10:34:53.551Z,62.4
2022-12-03T10:36:08.850Z,62.7
2022-12-03T10:37:22.582Z,61.2
2022-12-03T10:38:29.853Z,61.8
2022-12-03T10:39:37.009Z,62
2022-12-03T10:40:54.273Z,63.1
2022-12-03T10:42:02.831Z,62.4
2022-12-03T10:43:18.598Z,60.8
2022-12-03T10:44:25.920Z,62.9
2022-12-03T10:45:33.565Z,65.7
2022-12-03T10:46:40.731Z,65.6
2022-12-03T10:47:49.611Z,65.2
2022-12-03T10:49:06.778Z,62.9
2022-12-03T10:50:19.172Z,60.3
2022-12-03T10:51:26.224Z,63.2
2022-12-03T10:52:33.113Z,66.2
2022-12-03T10:53:40.418Z,65.4
2022-12-03T10:54:47.498Z,67
2022-12-03T10:55:55.466Z,65.9
2022-12-03T10:57:02.626Z,64.2
2022-12-03T10:58:09.567Z,65
2022-12-03T10:59:21.654Z,61.2
2022-12-03T11:00:28.778Z,63.5
2022-12-03T11:01:35.989Z,64.6
2022-12-03T11:02:43.116Z,66
2022-12-03T11:03:50.285Z,66.5
2022-12-03T11:04:58.218Z,66.4
2022-12-03T11:06:05.453Z,66.6
2022-12-03T11:07:13.053Z,66.8
2022-12-03T11:08:22.881Z,66.2
2022-12-03T11:09:29.947Z,68
2022-12-03T11:10:37.033Z,68.2
2022-12-03T11:11:44.320Z,64.7
2022-12-03T11:12:51.336Z,68.8
2022-12-03T11:14:09.689Z,70.8
2022-12-03T11:15:17.277Z,72.1
2022-12-03T11:16:24.582Z,70.1
2022-12-03T11:17:42.229Z,71.2
2022-12-03T11:18:49.506Z,70.1
2022-12-03T11:19:57.614Z,70.2
2022-12-03T11:21:04.991Z,70.7
2022-12-03T11:22:11.734Z,71.1
2022-12-03T11:23:30.025Z,71.3
2022-12-03T11:24:47.526Z,68.5
2022-12-03T11:26:05.524Z,69.8
2022-12-03T11:27:12.386Z,73.5
2022-12-03T11:28:19.862Z,72.7
2022-12-03T11:29:26.922Z,72.2
2022-12-03T11:30:44.645Z,75.8
2022-12-03T11:31:52.066Z,72.5
2022-12-03T11:32:58.953Z,76.3
2022-12-03T11:34:05.994Z,76.6
2022-12-03T11:35:22.257Z,75.5
2022-12-03T11:36:47.965Z,70.9
2022-12-03T11:37:36.574Z,75.1
2022-12-03T11:38:47.469Z,69.7
2022-12-03T11:39:51.282Z,72.7
2022-12-03T11:40:58.966Z,73.9
2022-12-03T11:42:11.175Z,77
2022-12-03T11:43:26.471Z,76.8
2022-12-03T11:44:43.774Z,77.1
2022-12-03T11:45:50.971Z,73.6
2022-12-03T11:46:58.254Z,77.2
2022-12-03T11:48:05.265Z,77.8
2022-12-03T11:49:15.283Z,78.6
2022-12-03T11:50:24.989Z,75.8
2022-12-03T11:51:32.153Z,78.9
2022-12-03T11:52:39.326Z,78.5
2022-12-03T11:53:46.637Z,70.7
2022-12-03T11:54:53.668Z,75
2022-12-03T11:56:04.466Z,75
2022-12-03T11:57:10.037Z,76.1
2022-12-03T11:58:22.079Z,73.6
2022-12-03T11:59:29.234Z,78.7
2022-12-03T12:00:36.429Z,77.1
2022-12-03T12:01:43.647Z,67.5
2022-12-03T12:02:51.742Z,67.4
2022-12-03T12:03:58.688Z,69.6
2022-12-03T12:05:06.437Z,72
2022-12-03T12:06:21.297Z,71.2
2022-12-03T12:07:28.373Z,70.2
2022-12-03T12:08:38.125Z,71.4
2022-12-03T12:09:50.550Z,71.5
2022-12-03T12:10:57.673Z,72.5
2022-12-03T12:12:04.595Z,78.4
2022-12-03T12:13:22.115Z,75.9
2022-12-03T12:14:30.061Z,77.9
2022-12-03T12:15:37.378Z,81
2022-12-03T12:16:47.587Z,81.6
2022-12-03T12:17:55.546Z,74.1
2022-12-03T12:19:13.746Z,74.6
2022-12-03T12:20:31.342Z,73.1
2022-12-03T12:21:38.441Z,76.6
2022-12-03T12:22:46.304Z,77.1
2022-12-03T12:23:54.437Z,77.5
2022-12-03T12:25:02.917Z,78.7
2022-12-03T12:26:20.405Z,85.2
2022-12-03T12:27:27.454Z,84.8
2022-12-03T12:28:42.549Z,86.3
2022-12-03T12:29:49.634Z,81.7
2022-12-03T12:30:56.815Z,80.3
2022-12-03T12:32:03.978Z,84.7
2022-12-03T12:33:13.685Z,82.5
2022-12-03T12:34:23.310Z,85.7
2022-12-03T12:35:30.425Z,87.6
2022-12-03T12:36:37.530Z,90.2
2022-12-03T12:37:47.282Z,86.9
2022-12-03T12:38:57.797Z,90.5
2022-12-03T12:40:05.099Z,84.9
2022-12-03T12:41:15.253Z,88.3
2022-12-03T12:42:22.369Z,85.5
2022-12-03T12:43:37.657Z,82.9
2022-12-03T12:44:44.853Z,86.7
2022-12-03T12:45:52.026Z,80.8
2022-12-03T12:46:59.084Z,81.8
2022-12-03T12:48:07.385Z,82
2022-12-03T12:49:17.755Z,81.5
2022-12-03T12:50:24.605Z,82.1
2022-12-03T12:51:31.770Z,82.6
2022-12-03T12:52:39.029Z,90
2022-12-03T12:53:56.937Z,85.2
2022-12-03T12:55:05.275Z,84.8
2022-12-03T12:56:10.913Z,79.5
2022-12-03T12:57:25.733Z,81.9
2022-12-03T12:58:32.826Z,78.6
2022-12-03T12:59:40.899Z,78.1
2022-12-03T13:00:48.241Z,88.3
2022-12-03T13:01:58.478Z,84.3
2022-12-03T13:03:05.450Z,78.5
2022-12-03T13:04:13.625Z,79.5
2022-12-03T13:05:23.808Z,84.2
2022-12-03T13:06:36.088Z,85.9
2022-12-03T13:07:43.243Z,85.2
2022-12-03T13:08:50.428Z,82.9
2022-12-03T13:09:57.666Z,85.7
2022-12-03T13:11:04.946Z,85.1
2022-12-03T13:12:22.437Z,82.1
2022-12-03T13:13:29.649Z,82.8
2022-12-03T13:14:44.848Z,82.6
2022-12-03T13:15:52.948Z,83.8
2022-12-03T13:17:04.985Z,82.3
2022-12-03T13:18:17.317Z,83
2022-12-03T13:19:29.785Z,82.3
2022-12-03T13:20:36.909Z,83.2
2022-12-03T13:21:44.198Z,86.1
2022-12-03T13:22:51.221Z,84.5
2022-12-03T13:23:58.427Z,82.2
2022-12-03T13:25:05.840Z,84.1
2022-12-03T13:26:29.421Z,75.2
2022-12-03T13:27:25.394Z,76.7
2022-12-03T13:28:35.066Z,73.3
2022-12-03T13:29:42.549Z,72.7
2022-12-03T13:30:49.386Z,75.6
2022-12-03T13:31:56.757Z,76.9
2022-12-03T13:33:06.861Z,70.6
2022-12-03T13:34:17.028Z,71.2
2022-12-03T13:35:24.065Z,71.5
2022-12-03T13:36:31.757Z,73.4
2022-12-03T13:37:38.843Z,75.5
2022-12-03T13:38:46.085Z,79.4
2022-12-03T13:39:53.516Z,76.7
2022-12-03T13:41:00.546Z,81.2
2022-12-03T13:42:07.485Z,80
2022-12-03T13:43:24.746Z,81.8
2022-12-03T13:44:32.701Z,75
2022-12-03T13:45:39.641Z,75.5
2022-12-03T13:46:47.620Z,70.7
2022-12-03T13:47:54.867Z,69.4
2022-12-03T13:49:02.338Z,68.2
2022-12-03T13:50:19.661Z,69.2
2022-12-03T13:51:32.226Z,69.5
2022-12-03T13:52:39.081Z,72
2022-12-03T13:53:46.273Z,69.6
2022-12-03T13:54:53.517Z,68.9
2022-12-03T13:56:00.933Z,74.1
2022-12-03T13:57:18.405Z,70.1
2022-12-03T13:58:26.205Z,67.9
2022-12-03T13:59:34.637Z,69.5
2022-12-03T14:00:41.862Z,76
2022-12-03T14:01:48.795Z,70.2
2022-12-03T14:02:56.039Z,72.9
2022-12-03T14:04:03.110Z,72.7
2022-12-03T14:05:10.184Z,69.2
2022-12-03T14:06:17.637Z,73.4
2022-12-03T14:07:25.171Z,69.6
2022-12-03T14:08:32.143Z,69.5
2022-12-03T14:09:39.312Z,69.2
2022-12-03T14:10:46.727Z,74.7
2022-12-03T14:11:53.609Z,73.1
2022-12-03T14:13:05.865Z,72.1
2022-12-03T14:14:13.017Z,74.1
2022-12-03T14:15:21.142Z,71.8
2022-12-03T14:16:28.727Z,71.9
2022-12-03T14:17:35.848Z,76.1
2022-12-03T14:18:43.741Z,77
2022-12-03T14:19:50.704Z,76.3
2022-12-03T14:20:58.094Z,77.2
2022-12-03T14:22:05.437Z,80.1
2022-12-03T14:23:12.793Z,78.8
2022-12-03T14:24:19.761Z,78
2022-12-03T14:25:26.833Z,77.6
2022-12-03T14:26:34.033Z,76
2022-12-03T14:27:41.131Z,82.3
2022-12-03T14:28:48.961Z,77.2
2022-12-03T14:29:56.315Z,75.9
2022-12-03T14:31:03.237Z,75.9
2022-12-03T14:32:10.238Z,73
2022-12-03T14:33:17.333Z,78.9
2022-12-03T14:34:24.411Z,74.6
2022-12-03T14:35:32.541Z,77.2
2022-12-03T14:36:39.852Z,77.2
2022-12-03T14:37:48.081Z,79.1
2022-12-03T14:38:55.169Z,75.5
2022-12-03T14:40:02.606Z,79.5
2022-12-03T14:41:10.845Z,75.9
2022-12-03T14:42:23.130Z,79.8
2022-12-03T14:43:30.269Z,80.2
2022-12-03T14:44:37.373Z,81.4
2022-12-03T14:45:44.935Z,79.7
2022-12-03T14:46:56.714Z,77.2
2022-12-03T14:47:59.191Z,79.4
2022-12-03T14:49:06.089Z,73.8
2022-12-03T14:50:14.194Z,79.1
2022-12-03T14:51:21.253Z,79.7
2022-12-03T14:52:28.401Z,83
2022-12-03T14:53:35.630Z,83
2022-12-03T14:54:43.058Z,82.5
2022-12-03T14:55:50.265Z,80.3
2022-12-03T14:56:57.521Z,80.5
2022-12-03T14:58:04.729Z,80.3
2022-12-03T14:59:12.759Z,82
2022-12-03T15:00:19.888Z,82.8
2022-12-03T15:01:27.112Z,78.6
2022-12-03T15:02:34.269Z,81.8
2022-12-03T15:03:41.320Z,85.5
2022-12-03T15:04:48.532Z,87.9
2022-12-03T15:05:56.662Z,83
2022-12-03T15:07:03.897Z,83.4
2022-12-03T15:08:11.976Z,87.1
2022-12-03T15:09:19.973Z,86.1
2022-12-03T15:10:28.482Z,81.5
2022-12-03T15:11:35.514Z,80.9
2022-12-03T15:12:42.617Z,83.9
2022-12-03T15:13:50.005Z,84.7
2022-12-03T15:14:56.964Z,77.1